createdAt,value
2024-05-09T00:04:11.507Z,99.99
2024-05-09T00:14:11.812Z,99.99
2024-05-09T00:24:11.670Z,99.99
2024-05-09T00:34:12.148Z,99.99
2024-05-09T00:44:12.291Z,99.99
2024-05-09T00:54:12.248Z,99.99
2024-05-09T01:04:12.694Z,99.99
2024-05-09T01:14:12.566Z,99.99
2024-05-09T01:24:12.773Z,99.99
2024-05-09T01:34:13.171Z,99.99
2024-05-09T01:44:13.133Z,99.99
2024-05-09T01:54:13.752Z,99.99
2024-05-09T02:04:13.844Z,99.99
2024-05-09T02:14:13.987Z,99.99
2024-05-09T02:24:13.820Z,99.99
2024-05-09T02:34:14.247Z,99.99
2024-05-09T02:44:14.102Z,99.99
2024-05-09T02:54:14.375Z,99.99
2024-05-09T03:04:14.651Z,99.99
2024-05-09T03:14:14.737Z,99.99
2024-05-09T03:24:14.897Z,99.99
2024-05-09T03:34:15.190Z,99.99
2024-05-09T03:44:15.143Z,99.99
2024-05-09T03:54:15.431Z,99.99
2024-05-09T04:04:15.430Z,99.99
2024-05-09T04:14:15.742Z,99.99
2024-05-09T04:24:15.954Z,99.99
2024-05-09T04:34:16.418Z,99.99
2024-05-09T04:44:16.325Z,99.99
2024-05-09T04:54:26.330Z,99.99
2024-05-09T05:04:17.697Z,99.99
2024-05-09T05:14:16.775Z,99.99
2024-05-09T05:24:17.013Z,99.99
2024-05-09T05:34:17.289Z,99.99
2024-05-09T05:44:17.150Z,99.99
2024-05-09T05:54:17.553Z,99.99
2024-05-09T06:04:17.562Z,99.99
2024-05-09T06:14:17.862Z,99.99
2024-05-09T06:24:17.701Z,99.99
2024-05-09T06:34:18.287Z,99.99
2024-05-09T06:44:18.355Z,99.99
2024-05-09T06:54:18.349Z,99.99
2024-05-09T07:04:18.670Z,99.99
2024-05-09T07:14:19.002Z,99.29
2024-05-09T07:24:18.782Z,97.97
2024-05-09T07:34:20.170Z,94.11
2024-05-09T07:44:19.401Z,91.33
2024-05-09T07:54:19.582Z,89.15
2024-05-09T08:04:20.073Z,86.43
2024-05-09T08:14:19.933Z,83.81
2024-05-09T08:24:19.762Z,83.53
2024-05-09T08:34:20.234Z,81.57
2024-05-09T08:44:21.321Z,80.47
2024-05-09T08:54:20.377Z,77.10
2024-05-09T09:04:20.800Z,74.77
2024-05-09T09:14:20.641Z,70.36
2024-05-09T09:24:20.905Z,61.83
2024-05-09T09:34:21.343Z,64.27
2024-05-09T09:44:21.446Z,61.36
2024-05-09T09:54:21.426Z,62.73
2024-05-09T10:04:21.859Z,66.43
2024-05-09T10:14:21.690Z,66.80
2024-05-09T10:24:21.953Z,63.36
2024-05-09T10:34:22.670Z,61.00
2024-05-09T10:44:22.497Z,60.24
2024-05-09T10:54:22.790Z,58.76
2024-05-09T11:04:22.890Z,55.95
2024-05-09T11:14:23.393Z,55.68
2024-05-09T11:24:23.023Z,55.35
2024-05-09T11:34:23.370Z,52.42
2024-05-09T11:44:23.298Z,48.78
2024-05-09T11:54:23.547Z,52.39
2024-05-09T12:04:24.317Z,53.59
2024-05-09T12:14:23.816Z,51.82
2024-05-09T12:24:23.758Z,50.87
2024-05-09T12:34:24.165Z,48.82
2024-05-09T12:44:24.354Z,49.62
2024-05-09T12:54:24.292Z,53.30
2024-05-09T13:04:25.377Z,48.13
2024-05-09T13:14:24.535Z,44.70
2024-05-09T13:24:24.860Z,43.72
2024-05-09T13:34:25.139Z,48.08
2024-05-09T13:44:25.670Z,46.44
2024-05-09T13:54:25.339Z,45.82
2024-05-09T14:04:25.718Z,50.29
2024-05-09T14:14:25.897Z,52.64
2024-05-09T14:24:25.848Z,45.42
2024-05-09T14:34:27.286Z,43.16
2024-05-09T14:44:26.403Z,46.80
2024-05-09T14:54:26.390Z,46.11
2024-05-09T15:04:26.761Z,43.42
2024-05-09T15:14:26.646Z,43.35
2024-05-09T15:24:27.244Z,51.87
2024-05-09T15:34:27.800Z,46.17
2024-05-09T15:44:27.152Z,42.55
2024-05-09T15:54:27.441Z,41.63
2024-05-09T16:04:27.907Z,39.87
2024-05-09T16:14:28.009Z,47.81
2024-05-09T16:24:27.954Z,41.00
2024-05-09T16:34:28.357Z,37.53
2024-05-09T16:44:28.210Z,40.92
2024-05-09T16:54:28.540Z,39.61
2024-05-09T17:04:28.743Z,41.38
2024-05-09T17:14:28.562Z,41.20
2024-05-09T17:24:29.009Z,43.65
2024-05-09T17:34:29.242Z,43.30
2024-05-09T17:44:29.259Z,43.35
2024-05-09T17:54:29.248Z,44.99
2024-05-09T18:04:32.807Z,51.89
2024-05-09T18:14:29.807Z,57.02
2024-05-09T18:24:29.760Z,61.52
2024-05-09T18:34:30.231Z,64.67
2024-05-09T18:44:30.311Z,67.52
2024-05-09T18:54:30.557Z,69.03
2024-05-09T19:04:30.647Z,70.59
2024-05-09T19:14:30.864Z,72.04
2024-05-09T19:24:30.868Z,74.10
2024-05-09T19:34:31.123Z,74.99
2024-05-09T19:44:31.079Z,74.21
2024-05-09T19:54:31.435Z,75.53
2024-05-09T20:04:31.484Z,74.65
2024-05-09T20:14:31.427Z,78.86
2024-05-09T20:24:31.812Z,79.48
2024-05-09T20:34:31.815Z,82.71
2024-05-09T20:44:31.867Z,82.82
2024-05-09T20:54:32.102Z,82.92
2024-05-09T21:04:32.342Z,86.76
2024-05-09T21:14:32.373Z,84.83
2024-05-09T21:24:32.580Z,86.24
2024-05-09T21:34:32.924Z,85.06
2024-05-09T21:44:32.856Z,85.91
2024-05-09T21:54:33.188Z,86.91
2024-05-09T22:04:33.560Z,89.42
2024-05-09T22:14:33.398Z,87.53
2024-05-09T22:24:33.669Z,89.62
2024-05-09T22:34:33.699Z,89.31
2024-05-09T22:44:33.919Z,89.97
2024-05-09T22:54:34.321Z,90.37
2024-05-09T23:04:34.225Z,90.83
2024-05-09T23:14:34.449Z,91.35
2024-05-09T23:24:34.470Z,89.66
2024-05-09T23:34:34.819Z,90.62
2024-05-09T23:44:34.630Z,92.31
2024-05-09T23:54:35.010Z,94.96
